createdAt,value
2018-06-14T00:00:03.118Z,12.42
2018-06-14T00:01:03.175Z,12.43
2018-06-14T00:02:56.160Z,12.32
2018-06-14T00:03:56.223Z,12.24
2018-06-14T00:05:49.214Z,12.22
2018-06-14T00:06:49.269Z,12.21
2018-06-14T00:08:42.257Z,12.18
2018-06-14T00:09:42.317Z,12.15
2018-06-14T00:11:35.350Z,12.18
2018-06-14T00:12:35.363Z,12.06
2018-06-14T00:14:28.360Z,12.12
2018-06-14T00:15:28.416Z,12.18
2018-06-14T00:17:21.428Z,12.12
2018-06-14T00:18:21.458Z,12.13
2018-06-14T00:20:14.452Z,12.27
2018-06-14T00:21:14.501Z,12.39
2018-06-14T00:23:07.489Z,12.36
2018-06-14T00:24:07.552Z,12.42
2018-06-14T00:26:00.546Z,12.54
2018-06-14T00:27:00.598Z,12.46
2018-06-14T00:28:53.584Z,12.54
2018-06-14T00:29:53.645Z,12.46
2018-06-14T00:31:46.640Z,12.53
2018-06-14T00:32:46.690Z,12.45
2018-06-14T00:34:39.674Z,12.39
2018-06-14T00:35:39.736Z,12.31
2018-06-14T00:37:32.730Z,12.25
2018-06-14T00:38:32.782Z,12.21
2018-06-14T00:40:25.772Z,12.17
2018-06-14T00:41:25.826Z,12.25
2018-06-14T00:43:18.811Z,12.17
2018-06-14T00:44:18.876Z,12.07
2018-06-14T00:46:11.868Z,12.00
2018-06-14T00:47:11.919Z,12.06
2018-06-14T00:49:04.907Z,12.02
2018-06-14T00:50:04.966Z,12.00
2018-06-14T00:51:57.961Z,12.04
2018-06-14T00:52:58.015Z,11.97
2018-06-14T00:54:51.004Z,11.95
2018-06-14T00:55:51.063Z,11.97
2018-06-14T00:57:44.059Z,12.06
2018-06-14T00:58:44.106Z,11.94
2018-06-14T01:00:37.104Z,12.04
2018-06-14T01:01:37.153Z,11.97
2018-06-14T01:03:30.138Z,12.00
2018-06-14T01:04:30.201Z,11.91
2018-06-14T01:06:23.190Z,12.03
2018-06-14T01:07:23.245Z,12.09
2018-06-14T01:09:16.227Z,12.06
2018-06-14T01:10:16.290Z,11.97
2018-06-14T01:12:09.284Z,12.04
2018-06-14T01:13:09.334Z,12.04
2018-06-14T01:15:02.321Z,11.91
2018-06-14T01:16:02.379Z,11.88
2018-06-14T01:17:55.377Z,11.80
2018-06-14T01:18:55.430Z,11.73
2018-06-14T01:20:48.412Z,11.68
2018-06-14T01:21:48.472Z,11.51
2018-06-14T01:23:41.467Z,11.47
2018-06-14T01:24:41.517Z,11.48
2018-06-14T01:26:34.509Z,11.54
2018-06-14T01:27:34.563Z,11.47
2018-06-14T01:29:27.591Z,11.51
2018-06-14T01:30:27.607Z,11.51
2018-06-14T01:32:20.602Z,11.51
2018-06-14T01:33:20.653Z,11.51
2018-06-14T01:35:13.636Z,11.47
2018-06-14T01:36:13.697Z,11.44
2018-06-14T01:38:06.691Z,11.47
2018-06-14T01:39:06.741Z,11.43
2018-06-14T01:40:59.725Z,11.57
2018-06-14T01:41:59.786Z,11.55
2018-06-14T01:43:52.782Z,11.51
2018-06-14T01:44:52.836Z,11.59
2018-06-14T01:46:45.820Z,11.52
2018-06-14T01:47:45.881Z,11.44
2018-06-14T01:49:38.876Z,11.50
2018-06-14T01:50:38.927Z,11.43
2018-06-14T01:52:31.924Z,11.41
2018-06-14T01:53:31.970Z,11.37
2018-06-14T01:55:24.958Z,11.40
2018-06-14T01:56:25.021Z,11.44
2018-06-14T01:58:18.011Z,11.27
2018-06-14T01:59:18.060Z,11.30
2018-06-14T02:01:11.044Z,11.35
2018-06-14T02:02:11.284Z,11.35
2018-06-14T02:04:04.100Z,11.27
2018-06-14T02:05:04.150Z,11.27
2018-06-14T02:06:57.141Z,11.22
2018-06-14T02:07:57.198Z,11.26
2018-06-14T02:09:50.194Z,11.23
2018-06-14T02:10:50.245Z,11.27
2018-06-14T02:12:43.231Z,11.18
2018-06-14T02:13:43.290Z,11.19
2018-06-14T02:15:36.286Z,11.22
2018-06-14T02:16:36.335Z,11.26
2018-06-14T02:18:29.331Z,11.22
2018-06-14T02:19:29.381Z,11.11
2018-06-14T02:21:22.365Z,11.11
2018-06-14T02:22:22.426Z,11.05
2018-06-14T02:24:15.421Z,10.99
2018-06-14T02:25:15.470Z,10.99
2018-06-14T02:27:08.453Z,10.90
2018-06-14T02:28:08.515Z,10.86
2018-06-14T02:30:01.505Z,10.86
2018-06-14T02:31:01.565Z,10.84
2018-06-14T02:32:54.554Z,10.84
2018-06-14T02:33:54.613Z,10.89
2018-06-14T02:35:47.611Z,10.87
2018-06-14T02:36:47.658Z,10.82
2018-06-14T02:38:40.644Z,10.89
2018-06-14T02:39:40.706Z,10.86
2018-06-14T02:41:33.696Z,10.81
2018-06-14T02:42:33.748Z,10.89
2018-06-14T02:44:26.751Z,10.74
2018-06-14T02:45:26.807Z,10.75
2018-06-14T02:47:19.792Z,10.74
2018-06-14T02:48:19.852Z,10.76
2018-06-14T02:50:12.844Z,10.78
2018-06-14T02:51:12.892Z,10.75
2018-06-14T02:53:05.881Z,10.75
2018-06-14T02:54:05.938Z,10.68
2018-06-14T02:55:58.927Z,10.67
2018-06-14T02:56:58.986Z,10.68
2018-06-14T02:58:51.966Z,10.57
2018-06-14T02:59:52.029Z,10.57
2018-06-14T03:01:45.022Z,10.60
2018-06-14T03:02:45.072Z,10.54
2018-06-14T03:04:38.056Z,10.60
2018-06-14T03:05:38.116Z,10.63
2018-06-14T03:07:31.111Z,10.76
2018-06-14T03:08:31.163Z,10.72
2018-06-14T03:10:24.162Z,10.81
2018-06-14T03:11:24.213Z,10.89
2018-06-14T03:13:17.705Z,10.89
2018-06-14T03:14:17.761Z,10.90
2018-06-14T03:16:10.753Z,10.89
2018-06-14T03:17:10.805Z,10.89
2018-06-14T03:19:03.789Z,10.82
2018-06-14T03:20:03.851Z,10.78
2018-06-14T03:21:56.838Z,10.86
2018-06-14T03:22:56.890Z,10.76
2018-06-14T03:24:49.876Z,10.75
2018-06-14T03:25:49.936Z,10.79
2018-06-14T03:27:42.929Z,10.76
2018-06-14T03:28:42.979Z,10.72
2018-06-14T03:30:35.973Z,10.61
2018-06-14T03:31:36.027Z,10.57
2018-06-14T03:33:29.006Z,10.67
2018-06-14T03:34:29.068Z,10.79
2018-06-14T03:36:22.080Z,10.74
2018-06-14T03:37:22.111Z,10.78
2018-06-14T03:39:15.099Z,10.86
2018-06-14T03:40:15.155Z,11.04
2018-06-14T03:42:08.148Z,11.14
2018-06-14T03:43:08.202Z,11.10
2018-06-14T03:45:01.187Z,11.19
2018-06-14T03:46:01.245Z,11.15
2018-06-14T03:47:54.241Z,11.25
2018-06-14T03:48:54.293Z,11.23
2018-06-14T03:50:47.276Z,11.29
2018-06-14T03:51:47.336Z,11.29
2018-06-14T03:53:40.333Z,11.27
2018-06-14T03:54:40.381Z,11.27
2018-06-14T03:56:33.374Z,11.40
2018-06-14T03:57:33.425Z,11.32
2018-06-14T03:59:26.409Z,11.36
2018-06-14T04:00:26.469Z,11.40
2018-06-14T04:02:19.463Z,11.48
2018-06-14T04:03:19.514Z,11.48
2018-06-14T04:05:12.498Z,11.50
2018-06-14T04:06:12.560Z,11.44
2018-06-14T04:08:05.552Z,11.52
2018-06-14T04:09:05.607Z,11.52
2018-06-14T04:10:58.591Z,11.51
2018-06-14T04:11:58.651Z,11.54
2018-06-14T04:13:51.648Z,11.68
2018-06-14T04:14:51.702Z,11.66
2018-06-14T04:16:44.687Z,11.72
2018-06-14T04:17:44.747Z,11.66
2018-06-14T04:19:37.744Z,11.69
2018-06-14T04:20:37.792Z,11.63
2018-06-14T04:22:30.787Z,11.52
2018-06-14T04:23:30.837Z,11.59
2018-06-14T04:25:24.332Z,11.59
2018-06-14T04:26:24.389Z,11.66
2018-06-14T04:28:17.384Z,11.66
2018-06-14T04:29:17.439Z,11.69
2018-06-14T04:31:10.431Z,11.73
2018-06-14T04:32:10.482Z,11.80
2018-06-14T04:34:03.478Z,11.90
2018-06-14T04:35:03.529Z,11.88
2018-06-14T04:36:56.513Z,12.03
2018-06-14T04:37:56.573Z,11.97
2018-06-14T04:39:49.570Z,12.07
2018-06-14T04:40:49.630Z,12.22
2018-06-14T04:42:42.619Z,12.25
2018-06-14T04:43:42.673Z,12.27
2018-06-14T04:45:35.657Z,12.22
2018-06-14T04:46:35.726Z,12.27
2018-06-14T04:48:28.714Z,12.39
2018-06-14T04:49:28.765Z,12.43
2018-06-14T04:51:21.751Z,12.50
2018-06-14T04:52:21.810Z,12.53
2018-06-14T04:54:14.807Z,12.45
2018-06-14T04:55:14.857Z,12.50
2018-06-14T04:57:07.842Z,12.58
2018-06-14T04:58:07.901Z,12.68
2018-06-14T05:00:00.899Z,12.75
2018-06-14T05:01:00.950Z,12.83
2018-06-14T05:02:54.463Z,12.82
2018-06-14T05:03:54.005Z,12.85
2018-06-14T05:05:46.997Z,12.90
2018-06-14T05:06:47.061Z,12.86
2018-06-14T05:08:40.055Z,12.97
2018-06-14T05:09:40.107Z,12.98
2018-06-14T05:11:33.096Z,13.00
2018-06-14T05:12:33.158Z,13.12
2018-06-14T05:14:26.154Z,13.12
2018-06-14T05:15:26.205Z,13.16
2018-06-14T05:17:19.198Z,13.23
2018-06-14T05:18:19.253Z,13.22
2018-06-14T05:20:12.246Z,13.23
2018-06-14T05:21:12.300Z,13.22
2018-06-14T05:23:05.810Z,13.30
2018-06-14T05:24:05.869Z,13.38
2018-06-14T05:25:58.861Z,13.42
2018-06-14T05:26:58.914Z,13.50
2018-06-14T05:28:51.918Z,13.53
2018-06-14T05:29:51.956Z,13.57
2018-06-14T05:31:44.950Z,13.62
2018-06-14T05:32:45.006Z,13.68
2018-06-14T05:34:38.002Z,13.78
2018-06-14T05:35:38.052Z,13.87
2018-06-14T05:37:31.040Z,14.03
2018-06-14T05:38:31.102Z,14.04
2018-06-14T05:40:24.104Z,14.07
2018-06-14T05:41:24.157Z,14.10
2018-06-14T05:43:17.152Z,14.15
2018-06-14T05:44:17.214Z,14.22
2018-06-14T05:46:10.209Z,14.44
2018-06-14T05:47:10.264Z,14.26
2018-06-14T05:49:03.247Z,14.40
2018-06-14T05:50:03.308Z,14.47
2018-06-14T05:51:56.306Z,14.59
2018-06-14T05:52:56.358Z,14.59
2018-06-14T05:54:49.353Z,14.85
2018-06-14T05:55:49.407Z,14.89
2018-06-14T05:57:42.395Z,15.04
2018-06-14T05:58:42.457Z,15.06
2018-06-14T06:00:35.449Z,15.24
2018-06-14T06:01:35.508Z,15.27
2018-06-14T06:03:28.492Z,15.25
2018-06-14T06:04:28.551Z,15.44
2018-06-14T06:06:21.548Z,15.58
2018-06-14T06:07:21.601Z,15.73
2018-06-14T06:09:14.589Z,16.20
2018-06-14T06:10:14.649Z,16.28
2018-06-14T06:12:07.641Z,16.83
2018-06-14T06:13:07.696Z,17.15
2018-06-14T06:15:00.696Z,17.52
2018-06-14T06:16:00.748Z,17.95
2018-06-14T06:17:53.743Z,19.66
2018-06-14T06:18:53.805Z,20.80
2018-06-14T06:20:46.801Z,22.36
2018-06-14T06:21:46.861Z,23.25
2018-06-14T06:23:39.848Z,23.96
2018-06-14T06:24:39.911Z,23.81
2018-06-14T06:26:32.908Z,23.32
2018-06-14T06:27:32.967Z,23.66
2018-06-14T06:29:25.974Z,23.03
2018-06-14T06:30:26.030Z,23.66
2018-06-14T06:32:19.050Z,24.24
2018-06-14T06:33:19.153Z,24.50
2018-06-14T06:35:12.097Z,24.33
2018-06-14T06:36:12.161Z,24.51
2018-06-14T06:38:05.164Z,25.53
2018-06-14T06:39:05.228Z,25.44
2018-06-14T06:40:58.236Z,25.72
2018-06-14T06:41:58.301Z,25.78
2018-06-14T06:43:51.302Z,26.31
2018-06-14T06:44:51.368Z,26.93
2018-06-14T06:46:44.381Z,26.47
2018-06-14T06:47:44.442Z,26.77
2018-06-14T06:49:37.450Z,26.75
2018-06-14T06:50:37.519Z,26.85
2018-06-14T06:52:30.531Z,27.08
2018-06-14T06:53:30.594Z,26.70
2018-06-14T06:55:23.610Z,27.49
2018-06-14T06:56:23.674Z,28.15
2018-06-14T06:58:16.683Z,27.63
2018-06-14T06:59:16.754Z,26.99
2018-06-14T07:01:09.769Z,26.95
2018-06-14T07:02:09.835Z,26.71
2018-06-14T07:04:02.844Z,27.18
2018-06-14T07:05:02.916Z,27.48
2018-06-14T07:06:55.932Z,28.01
2018-06-14T07:07:56.008Z,28.04
2018-06-14T07:09:49.011Z,27.70
2018-06-14T07:10:49.079Z,27.67
2018-06-14T07:12:42.095Z,26.68
2018-06-14T07:13:42.162Z,27.54
2018-06-14T07:15:36.753Z,28.25
2018-06-14T07:16:36.781Z,28.44
2018-06-14T07:18:29.791Z,28.42
2018-06-14T07:19:29.860Z,28.45
2018-06-14T07:21:22.941Z,28.05
2018-06-14T07:22:22.958Z,29.12
2018-06-14T07:24:15.962Z,29.14
2018-06-14T07:25:16.032Z,29.45
2018-06-14T07:27:09.057Z,28.72
2018-06-14T07:28:09.123Z,28.70
2018-06-14T07:30:02.137Z,29.22
2018-06-14T07:31:02.211Z,29.91
2018-06-14T07:32:55.234Z,30.81
2018-06-14T07:33:55.301Z,31.36
2018-06-14T07:35:48.323Z,30.46
2018-06-14T07:36:48.395Z,30.73
2018-06-14T07:38:41.414Z,30.44
2018-06-14T07:39:41.485Z,30.21
2018-06-14T07:41:34.512Z,30.18
2018-06-14T07:42:34.576Z,30.47
2018-06-14T07:44:27.594Z,29.63
2018-06-14T07:45:27.670Z,29.76
2018-06-14T07:47:20.693Z,29.12
2018-06-14T07:48:20.761Z,29.17
2018-06-14T07:50:13.778Z,29.35
2018-06-14T07:51:13.856Z,29.78
2018-06-14T07:53:06.927Z,30.97
2018-06-14T07:54:06.975Z,31.21
2018-06-14T07:55:59.964Z,31.03
2018-06-14T07:57:00.040Z,30.90
2018-06-14T07:58:53.062Z,30.68
2018-06-14T07:59:53.127Z,30.96
2018-06-14T08:01:46.157Z,29.87
2018-06-14T08:02:46.236Z,29.78
2018-06-14T08:04:50.868Z,30.31
2018-06-14T08:05:50.939Z,30.61
2018-06-14T08:07:43.970Z,29.65
2018-06-14T08:08:44.031Z,29.95
2018-06-14T08:10:37.047Z,29.39
2018-06-14T08:11:37.132Z,29.65
2018-06-14T08:13:30.153Z,28.22
2018-06-14T08:14:30.225Z,28.49
2018-06-14T08:16:23.251Z,28.29
2018-06-14T08:17:23.324Z,28.84
2018-06-14T08:19:16.348Z,29.59
2018-06-14T08:20:16.419Z,29.56
2018-06-14T08:22:09.454Z,29.20
2018-06-14T08:23:09.527Z,29.76
2018-06-14T08:25:02.552Z,29.97
2018-06-14T08:26:02.621Z,30.47
2018-06-14T08:27:55.647Z,30.53
2018-06-14T08:28:55.717Z,31.27
2018-06-14T08:30:48.737Z,30.03
2018-06-14T08:31:48.850Z,30.73
2018-06-14T08:33:41.846Z,30.66
2018-06-14T08:34:41.915Z,30.84
2018-06-14T08:36:34.937Z,30.66
2018-06-14T08:37:35.016Z,31.28
2018-06-14T08:39:28.045Z,30.37
2018-06-14T08:40:28.113Z,30.28
2018-06-14T08:42:21.161Z,30.84
2018-06-14T08:43:21.228Z,32.01
2018-06-14T08:45:14.255Z,32.16
2018-06-14T08:46:14.320Z,32.21
2018-06-14T08:48:07.350Z,31.29
2018-06-14T08:49:07.423Z,32.01
2018-06-14T08:51:00.450Z,31.28
2018-06-14T08:52:00.524Z,30.00
2018-06-14T08:53:53.556Z,30.34
2018-06-14T08:54:53.627Z,28.89
2018-06-14T08:56:46.662Z,28.29
2018-06-14T08:57:46.786Z,26.43
2018-06-14T08:59:39.759Z,26.45
2018-06-14T09:00:39.833Z,27.65
2018-06-14T09:02:32.872Z,28.59
2018-06-14T09:03:32.920Z,28.78
2018-06-14T09:05:26.475Z,27.77
2018-06-14T09:06:26.552Z,26.88
2018-06-14T09:08:19.543Z,26.09
2018-06-14T09:09:19.613Z,26.41
2018-06-14T09:11:12.658Z,27.49
2018-06-14T09:12:12.702Z,27.05
2018-06-14T09:14:05.721Z,25.75
2018-06-14T09:15:05.829Z,25.03
2018-06-14T09:16:58.807Z,26.74
2018-06-14T09:17:58.877Z,26.95
2018-06-14T09:19:51.905Z,25.88
2018-06-14T09:20:51.979Z,27.63
2018-06-14T09:22:44.989Z,27.37
2018-06-14T09:23:45.067Z,26.88
2018-06-14T09:25:38.113Z,28.47
2018-06-14T09:26:38.148Z,28.45
2018-06-14T09:28:31.167Z,30.55
2018-06-14T09:29:31.242Z,30.43
2018-06-14T09:31:24.265Z,28.76
2018-06-14T09:32:24.333Z,27.20
2018-06-14T09:34:17.356Z,26.89
2018-06-14T09:35:17.421Z,26.80
2018-06-14T09:37:10.438Z,25.96
2018-06-14T09:38:10.510Z,26.02
2018-06-14T09:40:03.531Z,25.14
2018-06-14T09:41:03.595Z,24.93
2018-06-14T09:42:56.689Z,24.29
2018-06-14T09:43:56.675Z,24.08
2018-06-14T09:45:49.696Z,23.77
2018-06-14T09:46:49.760Z,23.74
2018-06-14T09:48:42.988Z,23.59
2018-06-14T09:49:42.863Z,23.43
2018-06-14T09:51:35.880Z,23.21
2018-06-14T09:52:35.945Z,23.43
2018-06-14T09:54:28.949Z,23.86
2018-06-14T09:55:29.018Z,24.05
2018-06-14T09:57:22.029Z,24.10
2018-06-14T09:58:22.091Z,24.06
2018-06-14T10:00:15.105Z,23.96
2018-06-14T10:01:15.175Z,23.81
2018-06-14T10:03:08.178Z,23.34
2018-06-14T10:04:08.245Z,22.99
2018-06-14T10:06:01.278Z,22.85
2018-06-14T10:07:01.317Z,23.03
2018-06-14T10:08:54.325Z,23.31
2018-06-14T10:09:54.390Z,23.39
2018-06-14T10:11:47.400Z,23.20
2018-06-14T10:12:47.462Z,23.05
2018-06-14T10:14:40.468Z,22.98
2018-06-14T10:15:40.534Z,22.88
2018-06-14T10:17:33.542Z,23.02
2018-06-14T10:18:33.602Z,23.47
2018-06-14T10:20:26.615Z,23.43
2018-06-14T10:21:26.675Z,23.58
2018-06-14T10:23:19.681Z,23.81
2018-06-14T10:24:19.740Z,23.74
2018-06-14T10:26:12.754Z,23.59
2018-06-14T10:27:12.818Z,23.56
2018-06-14T10:29:05.819Z,23.41
2018-06-14T10:30:05.889Z,23.24
2018-06-14T10:31:58.899Z,23.44
2018-06-14T10:32:58.965Z,23.39
2018-06-14T10:34:51.968Z,23.59
2018-06-14T10:35:52.033Z,23.65
2018-06-14T10:37:45.047Z,23.73
2018-06-14T10:38:45.113Z,23.65
2018-06-14T10:40:38.150Z,23.36
2018-06-14T10:41:38.224Z,23.46
2018-06-14T10:43:31.326Z,23.28
2018-06-14T10:44:31.262Z,23.39
2018-06-14T10:46:24.423Z,23.55
2018-06-14T10:47:24.806Z,23.39
2018-06-14T10:49:17.407Z,23.73
2018-06-14T10:50:17.452Z,23.68
2018-06-14T10:52:10.473Z,23.93
2018-06-14T10:53:10.531Z,23.99
2018-06-14T10:55:03.530Z,24.11
2018-06-14T10:56:03.600Z,24.36
2018-06-14T10:57:56.627Z,24.26
2018-06-14T10:58:56.697Z,24.03
2018-06-14T11:00:49.677Z,24.36
2018-06-14T11:01:49.739Z,24.42
2018-06-14T11:03:42.746Z,24.53
2018-06-14T11:04:42.807Z,24.43
2018-06-14T11:06:35.820Z,24.69
2018-06-14T11:07:35.883Z,24.88
2018-06-14T11:09:28.886Z,25.23
2018-06-14T11:10:28.955Z,25.01
2018-06-14T11:12:21.965Z,24.65
2018-06-14T11:13:22.062Z,24.77
2018-06-14T11:15:15.027Z,24.96
2018-06-14T11:16:15.089Z,24.74
2018-06-14T11:18:08.102Z,24.55
2018-06-14T11:19:08.169Z,24.35
2018-06-14T11:21:01.168Z,24.20
2018-06-14T11:22:01.233Z,24.54
2018-06-14T11:23:54.244Z,24.65
2018-06-14T11:24:54.305Z,24.40
2018-06-14T11:26:47.333Z,24.57
2018-06-14T11:27:47.380Z,24.54
2018-06-14T11:29:40.390Z,24.70
2018-06-14T11:30:40.450Z,24.81
2018-06-14T11:32:33.464Z,24.70
2018-06-14T11:33:33.530Z,24.77
2018-06-14T11:35:26.548Z,24.69
2018-06-14T11:36:26.593Z,24.88
2018-06-14T11:38:19.600Z,25.22
2018-06-14T11:39:19.667Z,24.86
2018-06-14T11:41:12.671Z,24.47
2018-06-14T11:42:12.734Z,24.55
2018-06-14T11:44:05.743Z,24.48
2018-06-14T11:45:05.806Z,24.54
2018-06-14T11:46:58.808Z,24.51
2018-06-14T11:47:58.877Z,24.43
2018-06-14T11:49:51.892Z,24.23
2018-06-14T11:50:51.945Z,24.28
2018-06-14T11:52:44.967Z,24.55
2018-06-14T11:53:45.036Z,24.73
2018-06-14T11:55:38.037Z,25.10
2018-06-14T11:56:38.106Z,25.26
2018-06-14T11:58:31.117Z,25.23
2018-06-14T11:59:31.180Z,25.38
2018-06-14T12:01:24.232Z,25.16
2018-06-14T12:02:24.271Z,25.31
2018-06-14T12:04:17.324Z,24.96
2018-06-14T12:05:17.350Z,24.73
2018-06-14T12:07:10.351Z,24.20
2018-06-14T12:08:10.392Z,24.39
2018-06-14T12:10:03.409Z,24.63
2018-06-14T12:11:03.528Z,24.60
2018-06-14T12:12:56.467Z,24.17
2018-06-14T12:13:56.556Z,24.28
2018-06-14T12:16:01.200Z,24.48
2018-06-14T12:17:01.237Z,24.51
2018-06-14T12:18:54.246Z,24.55
2018-06-14T12:19:54.306Z,24.57
2018-06-14T12:21:47.309Z,24.35
2018-06-14T12:22:47.377Z,24.35
2018-06-14T12:24:40.414Z,24.39
2018-06-14T12:25:40.776Z,24.26
2018-06-14T12:27:33.988Z,24.38
2018-06-14T12:28:34.140Z,24.48
2018-06-14T12:30:27.074Z,24.80
2018-06-14T12:31:27.120Z,24.80
2018-06-14T12:33:20.635Z,24.98
2018-06-14T12:34:20.704Z,25.13
2018-06-14T12:36:14.212Z,25.29
2018-06-14T12:37:14.277Z,25.11
2018-06-14T12:39:07.294Z,24.73
2018-06-14T12:40:07.350Z,24.70
2018-06-14T12:42:00.368Z,24.63
2018-06-14T12:43:00.428Z,24.47
2018-06-14T12:44:55.245Z,24.61
2018-06-14T12:45:55.047Z,24.54
2018-06-14T12:47:48.020Z,24.28
2018-06-14T12:48:48.088Z,24.14
2018-06-14T12:50:41.094Z,24.11
2018-06-14T12:51:41.149Z,24.10
2018-06-14T12:53:34.156Z,24.55
2018-06-14T12:54:34.226Z,24.69
2018-06-14T12:56:27.230Z,24.93
2018-06-14T12:57:27.294Z,24.84
2018-06-14T12:59:20.295Z,24.85
2018-06-14T13:00:20.366Z,24.92
2018-06-14T13:02:13.368Z,24.73
2018-06-14T13:03:13.432Z,24.70
2018-06-14T13:05:06.467Z,24.95
2018-06-14T13:06:06.508Z,25.06
2018-06-14T13:07:59.517Z,24.98
2018-06-14T13:08:59.598Z,24.95
2018-06-14T13:10:52.593Z,25.28
2018-06-14T13:11:52.650Z,25.47
2018-06-14T13:13:45.655Z,25.63
2018-06-14T13:14:45.724Z,25.54
2018-06-14T13:16:38.771Z,24.96
2018-06-14T13:17:38.793Z,24.85
2018-06-14T13:19:31.791Z,24.36
2018-06-14T13:20:31.877Z,24.35
2018-06-14T13:22:24.885Z,24.57
2018-06-14T13:23:24.927Z,24.54
2018-06-14T13:25:17.932Z,24.50
2018-06-14T13:26:17.997Z,24.38
2018-06-14T13:28:11.005Z,24.55
2018-06-14T13:29:11.068Z,24.43
2018-06-14T13:31:04.081Z,24.23
2018-06-14T13:32:04.152Z,24.05
2018-06-14T13:33:57.154Z,24.14
2018-06-14T13:34:57.217Z,24.24
2018-06-14T13:36:50.231Z,24.33
2018-06-14T13:37:50.293Z,24.45
2018-06-14T13:39:43.301Z,24.51
2018-06-14T13:40:43.365Z,24.38
2018-06-14T13:42:36.403Z,24.10
2018-06-14T13:43:36.440Z,24.08
2018-06-14T13:45:29.949Z,23.87
2018-06-14T13:46:30.017Z,23.84
2018-06-14T13:48:23.020Z,23.47
2018-06-14T13:49:23.083Z,23.44
2018-06-14T13:51:16.115Z,23.36
2018-06-14T13:52:16.160Z,23.34
2018-06-14T13:54:09.166Z,23.44
2018-06-14T13:55:09.227Z,23.37
2018-06-14T13:57:02.304Z,23.41
2018-06-14T13:58:02.299Z,23.39
2018-06-14T13:59:55.302Z,23.50
2018-06-14T14:00:55.374Z,23.68
2018-06-14T14:02:48.368Z,23.48
2018-06-14T14:03:49.388Z,23.55
2018-06-14T14:05:41.439Z,23.71
2018-06-14T14:06:41.508Z,23.76
2018-06-14T14:08:34.565Z,23.83
2018-06-14T14:09:34.573Z,23.71
2018-06-14T14:11:27.595Z,23.88
2018-06-14T14:12:27.654Z,23.95
2018-06-14T14:14:20.660Z,23.87
2018-06-14T14:15:20.763Z,23.78
2018-06-14T14:17:13.735Z,23.81
2018-06-14T14:18:13.787Z,23.56
2018-06-14T14:20:06.792Z,23.65
2018-06-14T14:21:06.856Z,23.73
2018-06-14T14:22:59.862Z,23.63
2018-06-14T14:23:59.965Z,23.56
2018-06-14T14:25:52.930Z,23.48
2018-06-14T14:26:52.996Z,23.39
2018-06-14T14:28:46.013Z,23.40
2018-06-14T14:29:46.070Z,23.25
2018-06-14T14:31:39.072Z,23.23
2018-06-14T14:32:39.133Z,23.00
2018-06-14T14:34:32.145Z,23.00
2018-06-14T14:35:32.203Z,23.09
2018-06-14T14:37:25.209Z,22.96
2018-06-14T14:38:25.270Z,22.94
2018-06-14T14:40:18.280Z,23.02
2018-06-14T14:41:18.343Z,22.78
2018-06-14T14:43:11.352Z,22.85
2018-06-14T14:44:11.416Z,22.76
2018-06-14T14:46:04.418Z,22.63
2018-06-14T14:47:04.474Z,22.57
2018-06-14T14:48:57.480Z,22.57
2018-06-14T14:49:57.541Z,22.44
2018-06-14T14:51:50.539Z,22.33
2018-06-14T14:52:50.606Z,22.20
2018-06-14T14:54:43.629Z,22.13
2018-06-14T14:55:43.678Z,22.14
2018-06-14T14:57:36.795Z,21.83
2018-06-14T14:58:36.776Z,21.66
2018-06-14T15:00:29.755Z,21.48
2018-06-14T15:01:29.818Z,21.36
2018-06-14T15:03:22.826Z,21.14
2018-06-14T15:04:22.887Z,21.17
2018-06-14T15:06:15.931Z,21.24
2018-06-14T15:07:15.952Z,21.37
2018-06-14T15:09:08.959Z,21.40
2018-06-14T15:10:09.017Z,21.40
2018-06-14T15:12:02.247Z,21.32
2018-06-14T15:13:02.121Z,21.39
2018-06-14T15:14:55.099Z,21.20
2018-06-14T15:15:55.167Z,21.07
2018-06-14T15:17:48.174Z,20.99
2018-06-14T15:18:48.229Z,20.87
2018-06-14T15:20:41.241Z,20.96
2018-06-14T15:21:41.304Z,20.97
2018-06-14T15:23:34.302Z,20.88
2018-06-14T15:24:34.370Z,20.90
2018-06-14T15:26:28.374Z,20.84
2018-06-14T15:27:28.549Z,20.82
2018-06-14T15:29:21.543Z,20.75
2018-06-14T15:30:21.508Z,20.66
2018-06-14T15:32:14.507Z,20.62
2018-06-14T15:33:14.571Z,20.58
2018-06-14T15:35:07.578Z,20.58
2018-06-14T15:36:07.636Z,20.50
2018-06-14T15:38:00.639Z,20.50
2018-06-14T15:39:00.709Z,20.39
2018-06-14T15:40:53.713Z,20.43
2018-06-14T15:41:53.764Z,20.37
2018-06-14T15:43:46.772Z,20.14
2018-06-14T15:44:46.906Z,20.09
2018-06-14T15:46:39.932Z,20.04
2018-06-14T15:47:39.932Z,20.09
2018-06-14T15:49:32.901Z,20.07
2018-06-14T15:50:33.227Z,20.07
2018-06-14T15:52:25.963Z,20.07
2018-06-14T15:53:26.023Z,20.14
2018-06-14T15:55:19.031Z,20.06
2018-06-14T15:56:19.083Z,20.18
2018-06-14T15:58:12.078Z,20.03
2018-06-14T15:59:12.147Z,20.06
2018-06-14T16:01:05.215Z,19.91
2018-06-14T16:02:05.215Z,19.81
2018-06-14T16:03:58.210Z,19.84
2018-06-14T16:04:58.329Z,19.84
2018-06-14T16:06:51.495Z,19.77
2018-06-14T16:07:51.345Z,19.70
2018-06-14T16:09:44.336Z,19.69
2018-06-14T16:10:44.399Z,19.67
2018-06-14T16:12:37.404Z,19.64
2018-06-14T16:13:37.463Z,19.69
2018-06-14T16:15:30.464Z,19.59
2018-06-14T16:16:30.525Z,19.48
2018-06-14T16:18:23.540Z,19.58
2018-06-14T16:19:23.585Z,19.41
2018-06-14T16:21:16.598Z,19.33
2018-06-14T16:22:16.644Z,19.45
2018-06-14T16:24:09.644Z,19.26
2018-06-14T16:25:09.709Z,19.19
2018-06-14T16:27:02.709Z,19.18
2018-06-14T16:28:02.771Z,19.08
2018-06-14T16:29:55.770Z,18.95
2018-06-14T16:30:55.837Z,18.98
2018-06-14T16:32:48.839Z,18.78
2018-06-14T16:33:48.905Z,18.78
2018-06-14T16:35:41.892Z,18.84
2018-06-14T16:36:41.957Z,18.78
2018-06-14T16:38:34.958Z,18.65
2018-06-14T16:39:35.017Z,18.63
2018-06-14T16:41:28.033Z,18.62
2018-06-14T16:42:28.078Z,18.62
2018-06-14T16:44:21.074Z,18.65
2018-06-14T16:45:21.134Z,18.55
2018-06-14T16:47:14.137Z,18.62
2018-06-14T16:48:14.195Z,18.62
2018-06-14T16:50:07.188Z,18.63
2018-06-14T16:51:07.254Z,18.66
2018-06-14T16:53:00.253Z,18.56
2018-06-14T16:54:00.312Z,18.58
2018-06-14T16:55:53.308Z,18.63
2018-06-14T16:56:53.372Z,18.66
2018-06-14T16:58:46.371Z,18.65
2018-06-14T16:59:46.429Z,18.63
2018-06-14T17:01:39.428Z,18.55
2018-06-14T17:02:39.485Z,18.49
2018-06-14T17:04:32.480Z,18.45
2018-06-14T17:05:32.545Z,18.59
2018-06-14T17:07:25.543Z,18.56
2018-06-14T17:08:25.603Z,18.53
2018-06-14T17:10:18.594Z,18.58
2018-06-14T17:11:18.658Z,18.62
2018-06-14T17:13:11.657Z,18.44
2018-06-14T17:14:11.714Z,18.58
2018-06-14T17:16:04.753Z,18.60
2018-06-14T17:17:04.776Z,18.60
2018-06-14T17:18:57.779Z,18.47
2018-06-14T17:19:57.837Z,18.55
2018-06-14T17:21:50.835Z,18.45
2018-06-14T17:22:50.895Z,18.50
2018-06-14T17:24:43.899Z,18.52
2018-06-14T17:25:43.954Z,18.59
2018-06-14T17:27:36.954Z,18.60
2018-06-14T17:28:37.010Z,18.50
2018-06-14T17:30:30.011Z,18.53
2018-06-14T17:31:30.068Z,18.55
2018-06-14T17:33:23.069Z,18.47
2018-06-14T17:34:23.124Z,18.55
2018-06-14T17:36:16.160Z,18.47
2018-06-14T17:37:16.190Z,18.53
2018-06-14T17:39:09.198Z,18.43
2018-06-14T17:40:09.245Z,18.37
2018-06-14T17:42:02.232Z,18.31
2018-06-14T17:43:02.296Z,18.34
2018-06-14T17:44:55.803Z,18.28
2018-06-14T17:45:55.910Z,18.35
2018-06-14T17:47:48.874Z,18.37
2018-06-14T17:48:48.918Z,18.33
2018-06-14T17:50:41.917Z,18.35
2018-06-14T17:51:41.976Z,18.31
2018-06-14T17:53:34.999Z,18.26
2018-06-14T17:54:35.031Z,18.28
2018-06-14T17:56:28.034Z,18.34
2018-06-14T17:57:28.091Z,18.37
2018-06-14T17:59:21.099Z,18.34
2018-06-14T18:00:21.155Z,18.23
2018-06-14T18:02:14.136Z,18.29
2018-06-14T18:03:14.200Z,18.29
2018-06-14T18:05:07.862Z,18.31
2018-06-14T18:06:07.592Z,18.37
2018-06-14T18:08:00.248Z,18.38
2018-06-14T18:09:00.313Z,18.37
2018-06-14T18:10:53.314Z,18.31
2018-06-14T18:11:53.369Z,18.35
2018-06-14T18:13:46.368Z,18.31
2018-06-14T18:14:46.430Z,18.45
2018-06-14T18:16:39.430Z,18.41
2018-06-14T18:17:39.488Z,18.22
2018-06-14T18:19:32.491Z,18.29
2018-06-14T18:20:32.557Z,18.35
2018-06-14T18:22:25.554Z,18.31
2018-06-14T18:23:25.612Z,18.41
2018-06-14T18:25:18.612Z,18.56
2018-06-14T18:26:18.670Z,18.56
2018-06-14T18:28:11.664Z,18.52
2018-06-14T18:29:11.730Z,18.58
2018-06-14T18:31:04.736Z,18.56
2018-06-14T18:32:04.790Z,18.59
2018-06-14T18:33:57.782Z,18.68